Time;durP1;ratioP1;P1;durP2;ratioP2;P2;SDS_P1;SDS_P2;PMS_P1;PMS_P2;Temp;Humidity;BMP_temperature;BMP_pressure;BME280_temperature;BME280_humidity;BME280_pressure;Samples;Min_cycle;Max_cycle;Signal;HPM_P1;HPM_P2
2021/07/23 04:56:58;;;;;;;20.50;9.30;;;;;;;17.14;72.75;100293.59;5006516;28;106097;-67
2021/07/23 04:59:24;;;;;;;16.75;8.80;;;;;;;17.22;72.95;100289.84;5006610;28;106364;-68
2021/07/23 05:01:49;;;;;;;19.77;9.23;;;;;;;17.36;73.03;100291.47;5004352;28;106279;-68
2021/07/23 05:04:16;;;;;;;20.23;10.05;;;;;;;17.51;73.25;100285.81;5004540;28;106814;-73
2021/07/23 05:06:41;;;;;;;15.90;8.48;;;;;;;17.67;73.01;100291.75;5004120;28;106577;-77
2021/07/23 05:09:07;;;;;;;24.95;9.68;;;;;;;17.83;72.80;100285.84;5006024;28;105858;-67
2021/07/23 05:11:33;;;;;;;19.23;10.57;;;;;;;17.97;72.57;100275.84;5005001;28;106268;-68
2021/07/23 05:14:00;;;;;;;22.73;9.90;;;;;;;18.13;72.67;100284.47;5003720;28;106181;-68
2021/07/23 05:16:26;;;;;;;23.35;10.20;;;;;;;18.31;72.31;100283.72;5003317;28;105882;-68
2021/07/23 05:18:51;;;;;;;21.70;8.80;;;;;;;18.41;71.91;100276.78;5002601;28;106277;-67
2021/07/23 05:21:17;;;;;;;15.75;8.80;;;;;;;18.53;71.83;100276.88;5002740;28;106481;-67
2021/07/23 05:23:43;;;;;;;18.73;9.88;;;;;;;18.67;71.64;100276.78;5002534;28;106351;-66
2021/07/23 05:26:09;;;;;;;16.88;9.23;;;;;;;18.77;71.23;100279.81;5002137;28;106313;-67
2021/07/23 05:28:34;;;;;;;18.35;10.45;;;;;;;18.84;70.90;100283.25;5003463;28;106011;-66
2021/07/23 05:31:00;;;;;;;15.85;9.43;;;;;;;18.94;70.79;100283.63;5002234;28;106239;-65
2021/07/23 05:33:26;;;;;;;14.57;8.55;;;;;;;19.04;70.34;100280.41;5004585;28;108871;-66
2021/07/23 05:35:51;;;;;;;17.58;9.05;;;;;;;19.08;69.88;100280.75;5004861;28;106367;-67
2021/07/23 05:38:16;;;;;;;15.10;8.68;;;;;;;19.17;70.05;100286.69;5005937;28;105948;-67
2021/07/23 05:40:42;;;;;;;14.65;8.93;;;;;;;19.24;69.62;100280.16;5004867;28;106133;-68
2021/07/23 05:43:08;;;;;;;15.25;8.93;;;;;;;19.34;69.42;100278.81;5004426;28;106911;-68
2021/07/23 05:45:38;;;;;;;18.52;8.98;;;;;;;19.46;69.42;100282.41;5004316;28;105896;-67
2021/07/23 05:48:04;;;;;;;12.95;8.02;;;;;;;19.64;69.14;100286.13;5004950;28;106028;-68
2021/07/23 05:50:29;;;;;;;12.23;8.02;;;;;;;19.80;69.25;100280.13;5018500;28;105989;-74
2021/07/23 05:52:55;;;;;;;14.68;8.55;;;;;;;19.98;68.95;100279.25;5024052;27;106810;-71
2021/07/23 05:55:21;;;;;;;27.00;9.35;;;;;;;20.08;68.42;100279.50;4997607;27;119780;-70
2021/07/23 05:57:46;;;;;;;23.02;8.98;;;;;;;20.19;68.00;100277.06;4973653;28;106240;-69
2021/07/23 06:00:12;;;;;;;17.42;8.07;;;;;;;20.27;67.77;100277.56;4962360;28;105993;-69
2021/07/23 06:02:38;;;;;;;17.88;8.43;;;;;;;20.39;67.89;100279.44;4963745;28;106002;-70
2021/07/23 06:05:03;;;;;;;18.23;9.32;;;;;;;20.57;67.38;100282.06;4963990;28;106004;-71
2021/07/23 06:07:29;;;;;;;11.90;7.65;;;;;;;20.71;67.28;100281.84;4956329;28;105967;-68
2021/07/23 06:09:54;;;;;;;17.55;7.63;;;;;;;20.90;66.84;100283.41;4951207;28;106643;-69
2021/07/23 06:12:19;;;;;;;20.40;7.70;;;;;;;21.08;66.61;100281.63;4951111;28;106153;-69
2021/07/23 06:14:45;;;;;;;14.55;7.68;;;;;;;21.20;65.85;100287.84;4965559;28;111456;-69
2021/07/23 06:17:10;;;;;;;16.23;7.03;;;;;;;21.34;65.40;100282.97;4952103;28;105815;-69
2021/07/23 06:19:37;;;;;;;21.98;7.32;;;;;;;21.56;64.85;100283.16;4951027;28;106296;-71
2021/07/23 06:22:03;;;;;;;14.98;8.45;;;;;;;21.76;64.06;100282.75;4949288;28;106513;-71
2021/07/23 06:24:28;;;;;;;20.23;8.00;;;;;;;21.94;63.80;100281.72;4950084;28;106040;-69
2021/07/23 06:26:53;;;;;;;18.00;7.90;;;;;;;22.12;62.80;100274.44;4931757;28;105922;-68
2021/07/23 06:29:19;;;;;;;18.98;8.38;;;;;;;22.14;62.48;100277.72;4931556;28;108113;-68
2021/07/23 06:31:44;;;;;;;18.65;9.10;;;;;;;22.13;61.75;100282.31;4948225;28;105882;-73
2021/07/23 06:34:09;;;;;;;17.45;9.02;;;;;;;22.11;61.51;100281.72;4950039;28;106363;-69
2021/07/23 06:36:35;;;;;;;18.05;8.65;;;;;;;22.24;62.03;100277.91;4951655;28;106021;-72
2021/07/23 06:39:00;;;;;;;21.92;8.02;;;;;;;22.44;62.02;100279.31;4951260;28;106142;-74
2021/07/23 06:41:26;;;;;;;17.80;7.57;;;;;;;22.62;61.54;100279.06;4950712;28;105977;-75
2021/07/23 06:43:51;;;;;;;15.85;7.75;;;;;;;22.69;61.04;100283.50;4950559;28;106895;-73
2021/07/23 06:46:16;;;;;;;13.95;7.57;;;;;;;22.85;60.91;100288.09;4951579;28;106320;-73
2021/07/23 06:48:44;;;;;;;17.23;7.80;;;;;;;23.01;60.36;100280.16;4950963;28;106338;-73
2021/07/23 06:51:09;;;;;;;18.95;7.95;;;;;;;23.11;59.61;100285.72;4950440;28;106120;-73
2021/07/23 06:53:34;;;;;;;16.48;7.85;;;;;;;23.30;59.80;100289.81;4950597;28;106201;-76
2021/07/23 06:56:02;;;;;;;13.55;6.90;;;;;;;23.37;58.70;100283.38;4950456;28;106420;-73
2021/07/23 06:58:27;;;;;;;14.60;7.00;;;;;;;23.51;58.79;100286.53;4950764;28;106163;-73
2021/07/23 07:00:53;;;;;;;12.43;7.13;;;;;;;23.55;58.04;100280.34;4949948;28;106002;-73
2021/07/23 07:03:18;;;;;;;13.90;6.90;;;;;;;23.60;57.79;100285.00;4950406;28;106125;-73
2021/07/23 07:05:48;;;;;;;14.30;6.28;;;;;;;23.76;57.51;100286.00;4951420;28;106187;-71
2021/07/23 07:08:13;;;;;;;;;;;;;;;23.77;57.00;100282.19;4951680;28;106294;-72
2021/07/23 07:10:39;;;;;;;13.50;6.67;;;;;;;23.92;56.50;100279.66;4950495;28;106724;-73
2021/07/23 07:13:04;;;;;;;12.20;6.80;;;;;;;24.11;55.86;100276.56;4950232;28;106029;-75
2021/07/23 07:15:29;;;;;;;15.45;6.50;;;;;;;24.31;55.92;100287.63;4938838;28;106245;-71
2021/07/23 07:18:00;;;;;;;14.70;7.07;;;;;;;24.55;55.48;100281.00;4930533;28;106274;-71
2021/07/23 07:20:25;;;;;;;15.52;7.90;;;;;;;24.68;54.28;100277.84;4930311;28;106000;-71
2021/07/23 07:22:52;;;;;;;14.52;6.70;;;;;;;24.71;52.98;100279.22;4930665;28;106241;-74
2021/07/23 07:25:19;;;;;;;11.77;6.50;;;;;;;24.65;53.48;100281.91;4931517;28;106078;-70
2021/07/23 07:27:44;;;;;;;16.67;7.07;;;;;;;24.83;53.12;100282.56;4930580;28;106196;-72
2021/07/23 07:30:09;;;;;;;11.98;5.85;;;;;;;25.07;52.59;100274.81;4934586;28;105980;-72
2021/07/23 07:32:35;;;;;;;11.15;5.55;;;;;;;25.27;51.94;100282.25;4949704;28;105889;-73
2021/07/23 07:35:00;;;;;;;10.00;5.32;;;;;;;25.39;50.85;100278.53;4949506;28;106016;-70
2021/07/23 07:37:25;;;;;;;10.60;5.63;;;;;;;25.58;49.99;100276.13;4949986;28;106291;-71
2021/07/23 07:39:51;;;;;;;11.80;6.13;;;;;;;25.72;48.96;100276.44;4949700;28;105822;-72
2021/07/23 07:42:16;;;;;;;14.88;5.45;;;;;;;25.90;48.53;100270.47;4949868;28;105978;-72
2021/07/23 07:44:42;;;;;;;8.48;5.00;;;;;;;26.23;47.84;100275.69;4932552;28;106200;-72
2021/07/23 07:47:07;;;;;;;9.70;4.72;;;;;;;26.34;46.49;100278.16;4930463;28;106152;-72
2021/07/23 07:49:33;;;;;;;11.77;5.20;;;;;;;26.42;45.48;100279.53;4930012;28;105891;-71
2021/07/23 07:51:58;;;;;;;7.78;4.80;;;;;;;26.57;45.39;100275.94;4929403;28;116679;-72
2021/07/23 07:54:23;;;;;;;9.65;4.80;;;;;;;26.74;44.56;100277.63;4930421;28;106548;-72
2021/07/23 07:56:51;;;;;;;11.25;4.88;;;;;;;26.99;43.74;100279.47;4930058;28;106266;-70
2021/07/23 07:59:16;;;;;;;9.63;4.22;;;;;;;27.31;43.29;100273.59;4930081;28;106080;-74
2021/07/23 08:01:42;;;;;;;11.10;5.68;;;;;;;27.57;42.00;100269.94;4946610;28;106220;-73
2021/07/23 08:04:07;;;;;;;10.52;5.10;;;;;;;27.76;41.78;100267.38;4949358;28;106245;-74
2021/07/23 08:06:38;;;;;;;9.52;4.93;;;;;;;28.02;40.92;100271.59;4949683;28;106097;-74
2021/07/23 08:09:05;;;;;;;9.55;5.32;;;;;;;28.27;40.57;100271.66;4949613;28;105905;-73
2021/07/23 08:11:32;;;;;;;12.13;5.45;;;;;;;28.60;40.14;100271.94;4949644;28;106481;-71
2021/07/23 08:13:58;;;;;;;12.57;5.22;;;;;;;28.93;39.59;100270.22;4949931;28;106405;-69
2021/07/23 08:16:23;;;;;;;8.40;4.55;;;;;;;29.08;38.06;100268.44;4949716;28;106051;-71
2021/07/23 08:18:49;;;;;;;10.65;5.22;;;;;;;29.02;37.83;100271.22;4949407;28;106577;-71
2021/07/23 08:21:14;;;;;;;8.63;4.28;;;;;;;29.01;37.23;100275.06;4949041;28;107089;-71
2021/07/23 08:23:40;;;;;;;6.57;4.43;;;;;;;29.17;36.64;100277.63;4950108;28;106026;-72
2021/07/23 08:26:05;;;;;;;7.30;4.22;;;;;;;29.46;35.98;100274.03;4949364;28;106307;-73
2021/07/23 08:28:32;;;;;;;7.72;4.78;;;;;;;29.67;35.29;100275.34;4948895;28;105959;-72
2021/07/23 08:30:57;;;;;;;6.57;4.55;;;;;;;29.91;35.08;100273.66;4948515;28;105843;-73
2021/07/23 08:33:22;;;;;;;9.32;5.10;;;;;;;30.13;34.52;100273.06;4950227;28;106123;-73
2021/07/23 08:35:49;;;;;;;9.27;4.05;;;;;;;30.43;34.04;100274.47;4949225;28;106166;-73
2021/07/23 08:38:15;;;;;;;7.03;4.40;;;;;;;30.71;33.66;100272.63;4949101;28;105833;-78
2021/07/23 08:40:40;;;;;;;8.15;4.63;;;;;;;31.12;32.99;100271.00;4948985;28;106069;-75
2021/07/23 08:43:06;;;;;;;11.90;4.63;;;;;;;31.23;32.25;100274.34;4949808;28;106406;-77
2021/07/23 08:45:31;;;;;;;6.82;4.40;;;;;;;30.86;32.12;100270.66;4948819;28;106203;-80
2021/07/23 08:47:57;;;;;;;11.10;4.90;;;;;;;30.50;32.38;100274.09;4948867;28;106029;-76
2021/07/23 08:50:24;;;;;;;7.90;4.43;;;;;;;30.76;32.48;100273.63;4948957;28;106112;-77
2021/07/23 08:52:50;;;;;;;5.65;3.92;;;;;;;31.14;31.92;100265.19;4948914;28;106413;-78
2021/07/23 08:55:18;;;;;;;9.48;4.95;;;;;;;31.50;31.22;100262.47;4948380;28;106120;-75
2021/07/23 08:57:44;;;;;;;8.20;3.97;;;;;;;31.53;30.90;100267.38;4948874;28;106063;-72
2021/07/23 09:00:18;;;;;;;11.80;4.63;;;;;;;31.54;30.34;100262.69;4948247;28;106309;-74
2021/07/23 09:02:54;;;;;;;7.15;4.50;;;;;;;31.55;29.94;100258.81;4949311;28;105981;-70
2021/07/23 09:05:41;;;;;;;8.52;5.13;;;;;;;31.38;29.81;100268.53;4948071;28;106200;-70
2021/07/23 09:08:14;;;;;;;8.90;4.78;;;;;;;31.14;29.93;100266.03;4943965;28;106398;-72
2021/07/23 09:10:39;;;;;;;7.78;4.20;;;;;;;30.96;30.29;100262.22;4947821;28;105854;-71
2021/07/23 09:13:06;;;;;;;10.65;4.35;;;;;;;30.95;30.25;100257.00;4948521;28;105950;-72
2021/07/23 09:15:41;;;;;;;7.57;4.38;;;;;;;30.94;30.32;100261.72;4948374;28;106221;-75
2021/07/23 09:18:29;;;;;;;8.07;4.00;;;;;;;31.19;30.23;100259.59;4948070;28;106689;-73
2021/07/23 09:20:57;;;;;;;10.27;5.40;;;;;;;31.31;30.30;100250.81;4948060;28;106372;-73
2021/07/23 09:23:34;;;;;;;7.90;4.40;;;;;;;31.53;30.00;100255.53;4941656;28;106158;-73
2021/07/23 09:26:04;;;;;;;8.25;4.75;;;;;;;31.73;29.65;100254.31;4929131;28;105868;-71
2021/07/23 09:28:33;;;;;;;10.90;4.65;;;;;;;31.99;29.43;100257.25;4928513;28;106718;-70
2021/07/23 09:31:04;;;;;;;7.50;4.25;;;;;;;32.30;29.06;100255.69;4939071;28;106467;-72
2021/07/23 09:33:38;;;;;;;7.72;4.53;;;;;;;32.48;29.09;100245.56;4948431;28;106359;-71
2021/07/23 09:36:09;;;;;;;17.73;5.38;;;;;;;32.53;28.30;100248.19;4948032;28;105971;-73
2021/07/23 09:38:37;;;;;;;8.93;4.97;;;;;;;32.29;28.05;100251.28;4947570;28;107498;-71
2021/07/23 09:41:05;;;;;;;8.15;5.10;;;;;;;32.26;28.26;100250.00;4947666;28;106195;-71
2021/07/23 09:43:40;;;;;;;7.93;4.70;;;;;;;32.52;27.88;100246.56;4951538;28;106174;-72
2021/07/23 09:46:18;;;;;;;7.05;4.85;;;;;;;32.54;27.47;100244.31;4951948;28;105956;-70
2021/07/23 09:48:47;;;;;;;6.57;4.88;;;;;;;32.42;27.95;100241.34;4950527;28;106041;-70
2021/07/23 09:51:13;;;;;;;8.73;4.75;;;;;;;32.20;27.72;100243.00;4950810;28;106054;-72
2021/07/23 09:53:38;;;;;;;7.88;4.90;;;;;;;31.96;28.48;100230.34;4951278;28;105894;-72
2021/07/23 09:56:05;;;;;;;6.97;4.25;;;;;;;32.16;28.24;100236.47;4950927;28;105893;-70
2021/07/23 09:58:35;;;;;;;8.15;4.65;;;;;;;32.33;28.10;100228.31;4950661;28;105907;-73
2021/07/23 10:01:04;;;;;;;9.55;5.22;;;;;;;32.52;27.65;100230.00;4950697;28;106038;-71
2021/07/23 10:03:30;;;;;;;8.65;4.60;;;;;;;32.68;27.66;100228.50;4951742;28;105988;-71
2021/07/23 10:06:02;;;;;;;7.47;4.50;;;;;;;32.93;27.71;100228.91;4944343;28;106301;-71
2021/07/23 10:08:32;;;;;;;14.50;4.50;;;;;;;33.22;27.62;100227.53;4931567;28;106075;-71
2021/07/23 10:11:00;;;;;;;7.00;4.85;;;;;;;33.05;27.21;100226.34;4929953;28;106138;-76
2021/07/23 10:13:27;;;;;;;10.25;4.97;;;;;;;32.81;27.72;100220.44;4932014;28;106021;-72
2021/07/23 10:15:53;;;;;;;10.45;5.03;;;;;;;32.95;27.27;100225.84;4950620;28;106285;-72
2021/07/23 10:18:21;;;;;;;9.48;5.10;;;;;;;32.98;27.29;100216.91;4951192;28;106003;-71
2021/07/23 10:20:47;;;;;;;8.80;5.40;;;;;;;32.89;27.11;100217.69;4950633;28;106017;-74
2021/07/23 10:23:18;;;;;;;9.18;5.18;;;;;;;32.23;27.02;100220.31;4951461;28;106017;-73
2021/07/23 10:25:46;;;;;;;13.45;5.60;;;;;;;32.23;27.77;100214.78;4950591;28;106182;-71
2021/07/23 10:28:11;;;;;;;7.07;4.80;;;;;;;32.54;27.57;100213.97;4950331;28;105907;-73
2021/07/23 10:30:39;;;;;;;8.18;4.82;;;;;;;32.75;26.98;100208.72;4949841;28;106332;-72
2021/07/23 10:33:05;;;;;;;7.75;5.05;;;;;;;32.98;26.86;100201.16;4951543;28;105871;-72
2021/07/23 10:35:32;;;;;;;8.10;5.13;;;;;;;33.24;26.47;100203.19;4950385;28;106272;-72
2021/07/23 10:37:59;;;;;;;8.13;4.82;;;;;;;33.40;26.67;100196.06;4950312;28;106723;-72
2021/07/23 10:40:40;;;;;;;7.35;5.20;;;;;;;33.75;25.86;100198.00;4950293;28;105960;-71
2021/07/23 10:43:32;;;;;;;8.98;4.85;;;;;;;34.19;26.01;100195.19;4951153;28;106049;-72
2021/07/23 10:45:58;;;;;;;8.50;4.88;;;;;;;34.62;25.31;100191.44;4950411;28;106256;-70
2021/07/23 10:48:49;;;;;;;9.50;5.03;;;;;;;35.01;24.33;100186.69;4950100;28;106276;-67
2021/07/23 10:51:49;;;;;;;9.52;5.20;;;;;;;35.57;23.79;100180.09;4949651;28;105889;-66
2021/07/23 10:54:15;;;;;;;9.02;5.05;;;;;;;35.82;23.49;100189.34;4950788;28;106036;-67
2021/07/23 10:57:03;;;;;;;11.13;5.57;;;;;;;35.77;23.32;100183.97;4958035;28;106078;-69
2021/07/23 10:59:49;;;;;;;7.72;4.82;;;;;;;35.78;23.33;100173.72;4957144;28;107137;-72
2021/07/23 11:02:14;;;;;;;6.80;5.30;;;;;;;35.64;23.21;100176.78;4959941;28;106421;-74
2021/07/23 11:04:43;;;;;;;7.53;4.90;;;;;;;35.43;23.23;100169.28;4951148;28;106069;-74
2021/07/23 11:07:10;;;;;;;7.82;4.97;;;;;;;35.23;23.18;100174.47;4950065;28;106139;-69
2021/07/23 11:09:36;;;;;;;9.07;5.32;;;;;;;34.92;23.07;100172.09;4950476;28;106714;-71
2021/07/23 11:12:18;;;;;;;12.63;5.63;;;;;;;34.46;23.54;100176.56;4950098;28;106284;-71
2021/07/23 11:14:53;;;;;;;8.85;5.35;;;;;;;34.10;24.18;100175.03;4950658;28;106334;-69
2021/07/23 11:17:19;;;;;;;10.50;5.38;;;;;;;33.82;24.77;100170.72;4949699;28;105909;-67
2021/07/23 11:19:48;;;;;;;9.38;5.22;;;;;;;33.29;24.99;100172.66;4950051;28;105867;-70
2021/07/23 11:22:21;;;;;;;10.90;6.00;;;;;;;32.89;25.31;100167.25;4949971;28;106030;-72
2021/07/23 11:24:47;;;;;;;9.85;5.68;;;;;;;32.58;26.28;100165.34;4950466;28;106013;-70
2021/07/23 11:27:24;;;;;;;8.15;4.90;;;;;;;32.41;26.23;100168.84;4950034;28;106160;-69
2021/07/23 11:29:49;;;;;;;13.30;5.38;;;;;;;32.19;26.60;100170.53;4947817;28;107688;-68
2021/07/23 11:32:17;;;;;;;12.52;5.60;;;;;;;31.83;26.66;100171.41;4949597;28;106610;-69
2021/07/23 11:34:44;;;;;;;10.38;5.80;;;;;;;31.63;27.31;100166.41;4949723;28;106171;-68
2021/07/23 11:37:29;;;;;;;11.00;5.80;;;;;;;31.53;27.53;100161.94;4949812;28;106148;-69
2021/07/23 11:40:00;;;;;;;11.30;6.10;;;;;;;31.29;27.80;100162.22;4949038;28;106804;-68
2021/07/23 11:42:27;;;;;;;9.98;5.43;;;;;;;31.13;27.41;100162.59;4949230;28;106401;-70
2021/07/23 11:44:55;;;;;;;9.07;5.63;;;;;;;31.09;27.68;100161.59;4950052;28;106394;-72
2021/07/23 11:47:29;;;;;;;9.00;5.75;;;;;;;31.04;27.78;100157.03;4949102;28;106278;-71
2021/07/23 11:49:56;;;;;;;12.20;5.82;;;;;;;31.15;27.57;100151.28;4947998;28;105902;-71
2021/07/23 11:52:23;;;;;;;12.68;6.03;;;;;;;31.17;27.14;100154.53;4949605;28;106086;-66
2021/07/23 11:54:59;;;;;;;13.93;6.10;;;;;;;31.22;27.37;100151.66;4949417;28;106050;-66
2021/07/23 11:57:25;;;;;;;9.68;5.93;;;;;;;31.28;27.39;100147.66;4949701;28;106825;-65
2021/07/23 11:59:50;;;;;;;18.65;6.22;;;;;;;31.54;27.20;100149.81;4949168;28;106568;-66
2021/07/23 12:02:16;;;;;;;10.05;5.63;;;;;;;31.91;27.18;100145.06;4949444;28;106658;-67
2021/07/23 12:04:41;;;;;;;9.57;5.50;;;;;;;32.30;27.28;100146.28;4949411;28;106007;-68
2021/07/23 12:07:07;;;;;;;9.65;6.40;;;;;;;32.40;26.30;100143.22;4948007;28;106328;-71
2021/07/23 12:09:34;;;;;;;13.18;7.10;;;;;;;32.35;26.03;100142.56;4929418;28;105998;-69
2021/07/23 12:12:00;;;;;;;8.50;5.68;;;;;;;32.55;26.08;100152.19;4929609;28;106023;-68
2021/07/23 12:14:25;;;;;;;10.57;5.80;;;;;;;32.42;26.07;100145.66;4946518;28;105846;-71
2021/07/23 12:16:52;;;;;;;9.60;5.90;;;;;;;32.38;25.75;100145.50;4948350;28;106099;-69
2021/07/23 12:19:19;;;;;;;11.77;5.97;;;;;;;32.17;25.95;100136.16;4948770;28;105905;-70
2021/07/23 12:21:45;;;;;;;10.38;5.72;;;;;;;31.77;26.46;100144.31;4948938;28;106662;-71
2021/07/23 12:24:11;;;;;;;8.10;5.90;;;;;;;31.46;26.42;100142.31;4949440;28;106183;-70
2021/07/23 12:26:41;;;;;;;9.55;6.20;;;;;;;31.22;26.55;100144.22;4947084;28;106186;-69
2021/07/23 12:29:08;;;;;;;9.70;5.35;;;;;;;31.09;26.55;100134.06;4945677;28;106780;-74
2021/07/23 12:31:34;;;;;;;7.00;4.90;;;;;;;31.32;26.48;100129.41;4947649;28;106558;-73
2021/07/23 12:34:00;;;;;;;8.02;5.68;;;;;;;31.56;26.40;100145.63;4949233;28;106445;-69
2021/07/23 12:36:25;;;;;;;9.10;6.35;;;;;;;31.73;26.27;100136.69;4948365;28;106162;-72
2021/07/23 12:39:01;;;;;;;10.43;5.28;;;;;;;31.69;26.16;100141.22;4948410;28;105993;-70
2021/07/23 12:41:26;;;;;;;8.68;5.38;;;;;;;31.73;26.38;100133.94;4947673;28;105941;-71
2021/07/23 12:44:12;;;;;;;10.75;5.50;;;;;;;31.98;25.89;100137.16;4949273;28;106077;-69
2021/07/23 12:46:40;;;;;;;9.25;5.97;;;;;;;32.02;26.04;100127.13;4948462;28;106130;-70
2021/07/23 12:49:12;;;;;;;9.73;6.00;;;;;;;32.15;25.63;100121.88;4948726;28;106735;-70
2021/07/23 12:51:38;;;;;;;8.88;5.40;;;;;;;32.25;25.89;100132.63;4948039;28;105822;-70
2021/07/23 12:54:04;;;;;;;8.48;6.10;;;;;;;32.42;25.36;100131.88;4949415;28;106098;-70
2021/07/23 12:56:30;;;;;;;12.98;6.25;;;;;;;32.34;25.55;100130.72;4930557;28;106779;-71
2021/07/23 12:58:56;;;;;;;8.82;5.70;;;;;;;32.59;25.37;100119.28;4943873;28;106668;-70
2021/07/23 13:01:22;;;;;;;8.60;5.00;;;;;;;33.06;25.36;100120.34;4934740;28;106732;-74
2021/07/23 13:03:47;;;;;;;10.23;5.25;;;;;;;33.31;24.91;100115.22;4948856;28;106067;-67
2021/07/23 13:06:17;;;;;;;7.65;5.70;;;;;;;33.20;24.25;100114.69;4948581;28;106381;-71
2021/07/23 13:08:43;;;;;;;9.02;5.60;;;;;;;33.28;24.21;100118.59;4947645;28;106021;-68
2021/07/23 13:11:10;;;;;;;7.15;5.00;;;;;;;33.51;24.15;100115.66;4948535;28;105850;-68
2021/07/23 13:13:37;;;;;;;10.10;5.20;;;;;;;33.51;23.58;100115.66;4948592;28;105977;-68
2021/07/23 13:16:10;;;;;;;9.68;5.18;;;;;;;33.51;23.42;100115.66;4946098;28;106592;-67
2021/07/23 13:18:36;;;;;;;7.13;5.05;;;;;;;33.30;23.39;100110.81;4947939;28;106097;-70
2021/07/23 13:21:03;;;;;;;9.10;5.90;;;;;;;32.63;24.17;100110.06;4949275;28;106043;-76
2021/07/23 13:23:29;;;;;;;7.43;4.72;;;;;;;32.26;24.11;100109.47;4950257;28;106175;-72
2021/07/23 13:25:57;;;;;;;8.68;5.00;;;;;;;31.75;24.39;100113.53;4949750;28;105956;-72
2021/07/23 13:28:22;;;;;;;7.00;4.88;;;;;;;31.45;24.46;100100.19;4949331;28;106015;-76
2021/07/23 13:30:48;;;;;;;9.00;5.25;;;;;;;31.50;24.59;100105.59;4950854;28;105979;-80
2021/07/23 13:33:13;;;;;;;7.28;5.15;;;;;;;31.51;24.79;100103.66;4951944;28;106104;-79
2021/07/23 13:35:39;;;;;;;11.65;5.40;;;;;;;31.61;24.71;100102.63;4951689;28;106256;-76
2021/07/23 13:38:11;;;;;;;10.35;5.30;;;;;;;31.87;24.49;100095.31;4951620;28;105966;-76
2021/07/23 13:40:38;;;;;;;8.10;5.45;;;;;;;32.06;24.55;100086.81;4951426;28;106020;-74
2021/07/23 13:43:10;;;;;;;7.50;5.22;;;;;;;32.19;24.65;100095.31;4952245;28;106484;-72
2021/07/23 13:45:36;;;;;;;7.93;5.35;;;;;;;32.31;24.33;100092.75;4950996;28;106039;-72
2021/07/23 13:48:02;;;;;;;9.07;5.45;;;;;;;32.39;24.61;100088.41;4951451;28;106676;-72
2021/07/23 13:50:28;;;;;;;10.10;5.78;;;;;;;31.97;24.59;100091.47;4950938;28;106087;-71
2021/07/23 13:52:53;;;;;;;10.05;6.07;;;;;;;31.43;24.76;100096.16;4952172;28;105992;-75
2021/07/23 13:55:18;;;;;;;8.85;5.55;;;;;;;31.07;25.09;100088.75;4951305;28;106127;-69
2021/07/23 13:57:44;;;;;;;9.32;5.25;;;;;;;30.97;25.21;100085.06;4951280;28;105882;-68
2021/07/23 14:00:10;;;;;;;9.77;5.07;;;;;;;30.84;25.22;100084.00;4949819;28;106497;-76
2021/07/23 14:02:38;;;;;;;9.90;5.32;;;;;;;30.89;25.61;100083.88;4951858;28;105815;-72
2021/07/23 14:05:04;;;;;;;8.63;5.10;;;;;;;30.98;25.32;100077.66;4947982;28;106544;-71
2021/07/23 14:07:29;;;;;;;7.78;5.25;;;;;;;31.01;25.22;100079.78;4949743;28;106669;-72
2021/07/23 14:09:58;;;;;;;6.60;5.10;;;;;;;31.20;24.94;100082.38;4948116;28;115221;-71
2021/07/23 14:12:25;;;;;;;10.70;5.85;;;;;;;31.22;24.93;100082.88;4950476;28;106060;-71
2021/07/23 14:14:50;;;;;;;8.70;5.30;;;;;;;31.07;24.86;100073.06;4949510;28;106234;-72
2021/07/23 14:17:15;;;;;;;12.52;5.45;;;;;;;31.10;25.13;100072.44;4949245;28;106176;-72
2021/07/23 14:19:41;;;;;;;8.73;6.40;;;;;;;31.04;25.09;100073.66;4949717;28;109163;-71
2021/07/23 14:22:06;;;;;;;7.22;5.15;;;;;;;30.75;25.69;100071.28;4950172;28;106136;-67
